sensor_id;sensor_type;location;lat;lon;timestamp;P1;durP1;ratioP1;P2;durP2;ratioP2
11269;SDS011;5692;48.956;9.200;2023-07-20T00:01:31;209.80;;;199.75;;
11269;SDS011;5692;48.956;9.200;2023-07-20T00:03:57;214.63;;;204.37;;
11269;SDS011;5692;48.956;9.200;2023-07-20T00:06:26;219.63;;;209.13;;
11269;SDS011;5692;48.956;9.200;2023-07-20T00:08:55;235.13;;;223.88;;
11269;SDS011;5692;48.956;9.200;2023-07-20T00:11:25;236.18;;;224.88;;
11269;SDS011;5692;48.956;9.200;2023-07-20T00:13:51;219.57;;;209.07;;
11269;SDS011;5692;48.956;9.200;2023-07-20T00:16:17;243.67;;;232.00;;
11269;SDS011;5692;48.956;9.200;2023-07-20T00:18:43;252.40;;;240.33;;
11269;SDS011;5692;48.956;9.200;2023-07-20T00:21:09;242.27;;;230.67;;
11269;SDS011;5692;48.956;9.200;2023-07-20T00:23:35;233.48;;;222.30;;
11269;SDS011;5692;48.956;9.200;2023-07-20T00:26:02;242.93;;;231.30;;
11269;SDS011;5692;48.956;9.200;2023-07-20T00:28:28;236.30;;;225.00;;
11269;SDS011;5692;48.956;9.200;2023-07-20T00:30:54;241.77;;;230.17;;
11269;SDS011;5692;48.956;9.200;2023-07-20T00:33:20;236.23;;;224.93;;
11269;SDS011;5692;48.956;9.200;2023-07-20T00:35:46;229.02;;;218.07;;
11269;SDS011;5692;48.956;9.200;2023-07-20T00:38:12;235.82;;;224.52;;
11269;SDS011;5692;48.956;9.200;2023-07-20T00:40:38;242.50;;;230.90;;
11269;SDS011;5692;48.956;9.200;2023-07-20T00:43:04;254.35;;;242.18;;
11269;SDS011;5692;48.956;9.200;2023-07-20T00:45:31;251.70;;;239.68;;
11269;SDS011;5692;48.956;9.200;2023-07-20T00:47:57;243.52;;;231.88;;
11269;SDS011;5692;48.956;9.200;2023-07-20T00:50:24;232.13;;;221.03;;
11269;SDS011;5692;48.956;9.200;2023-07-20T00:52:50;252.32;;;240.27;;
11269;SDS011;5692;48.956;9.200;2023-07-20T00:55:16;232.00;;;220.90;;
11269;SDS011;5692;48.956;9.200;2023-07-20T00:57:42;248.43;;;236.55;;
11269;SDS011;5692;48.956;9.200;2023-07-20T01:00:10;240.52;;;229.02;;
11269;SDS011;5692;48.956;9.200;2023-07-20T01:02:37;247.15;;;235.32;;
11269;SDS011;5692;48.956;9.200;2023-07-20T01:05:03;239.37;;;227.93;;
11269;SDS011;5692;48.956;9.200;2023-07-20T01:07:34;236.93;;;225.63;;
11269;SDS011;5692;48.956;9.200;2023-07-20T01:10:03;244.20;;;232.50;;
11269;SDS011;5692;48.956;9.200;2023-07-20T01:14:58;244.23;;;232.53;;
11269;SDS011;5692;48.956;9.200;2023-07-20T01:17:24;254.85;;;242.65;;
11269;SDS011;5692;48.956;9.200;2023-07-20T01:19:50;260.93;;;248.47;;
11269;SDS011;5692;48.956;9.200;2023-07-20T01:24:51;239.70;;;228.23;;
11269;SDS011;5692;48.956;9.200;2023-07-20T01:30:14;246.35;;;234.57;;
11269;SDS011;5692;48.956;9.200;2023-07-20T01:32:42;243.80;;;232.13;;
11269;SDS011;5692;48.956;9.200;2023-07-20T01:35:10;238.70;;;227.27;;
11269;SDS011;5692;48.956;9.200;2023-07-20T01:37:39;243.25;;;231.63;;
11269;SDS011;5692;48.956;9.200;2023-07-20T01:40:09;231.15;;;220.07;;
11269;SDS011;5692;48.956;9.200;2023-07-20T01:42:35;236.10;;;224.80;;
11269;SDS011;5692;48.956;9.200;2023-07-20T01:45:01;260.30;;;247.85;;
11269;SDS011;5692;48.956;9.200;2023-07-20T01:47:27;266.63;;;253.88;;
11269;SDS011;5692;48.956;9.200;2023-07-20T01:49:54;259.77;;;247.38;;
11269;SDS011;5692;48.956;9.200;2023-07-20T01:52:20;243.80;;;232.13;;
11269;SDS011;5692;48.956;9.200;2023-07-20T01:54:46;263.10;;;250.50;;
11269;SDS011;5692;48.956;9.200;2023-07-20T01:57:11;248.80;;;236.90;;
11269;SDS011;5692;48.956;9.200;2023-07-20T01:59:38;253.90;;;241.75;;
11269;SDS011;5692;48.956;9.200;2023-07-20T02:02:04;249.40;;;237.47;;
11269;SDS011;5692;48.956;9.200;2023-07-20T02:04:30;244.25;;;232.55;;
11269;SDS011;5692;48.956;9.200;2023-07-20T02:06:56;230.57;;;219.53;;
11269;SDS011;5692;48.956;9.200;2023-07-20T02:09:21;247.03;;;235.20;;
11269;SDS011;5692;48.956;9.200;2023-07-20T02:11:47;245.67;;;233.93;;
11269;SDS011;5692;48.956;9.200;2023-07-20T02:14:13;242.98;;;231.38;;
11269;SDS011;5692;48.956;9.200;2023-07-20T02:16:39;242.90;;;231.30;;
11269;SDS011;5692;48.956;9.200;2023-07-20T02:19:05;249.83;;;237.87;;
11269;SDS011;5692;48.956;9.200;2023-07-20T02:21:32;235.35;;;224.10;;
11269;SDS011;5692;48.956;9.200;2023-07-20T02:23:58;240.88;;;229.35;;
11269;SDS011;5692;48.956;9.200;2023-07-20T02:26:25;238.98;;;227.55;;
11269;SDS011;5692;48.956;9.200;2023-07-20T02:28:53;240.50;;;229.00;;
11269;SDS011;5692;48.956;9.200;2023-07-20T02:31:19;248.30;;;236.43;;
11269;SDS011;5692;48.956;9.200;2023-07-20T02:33:45;240.63;;;229.13;;
11269;SDS011;5692;48.956;9.200;2023-07-20T02:36:11;236.93;;;225.63;;
11269;SDS011;5692;48.956;9.200;2023-07-20T02:38:37;231.87;;;220.77;;
11269;SDS011;5692;48.956;9.200;2023-07-20T02:41:03;248.57;;;236.67;;
11269;SDS011;5692;48.956;9.200;2023-07-20T02:43:29;232.17;;;221.07;;
11269;SDS011;5692;48.956;9.200;2023-07-20T02:45:55;236.60;;;225.30;;
11269;SDS011;5692;48.956;9.200;2023-07-20T02:48:21;236.77;;;225.43;;
11269;SDS011;5692;48.956;9.200;2023-07-20T02:50:47;236.85;;;225.50;;
11269;SDS011;5692;48.956;9.200;2023-07-20T02:53:13;239.13;;;227.70;;
11269;SDS011;5692;48.956;9.200;2023-07-20T02:55:39;252.13;;;240.07;;
11269;SDS011;5692;48.956;9.200;2023-07-20T02:58:05;227.60;;;216.70;;
11269;SDS011;5692;48.956;9.200;2023-07-20T03:00:31;232.00;;;220.90;;
11269;SDS011;5692;48.956;9.200;2023-07-20T03:02:57;229.93;;;218.93;;
11269;SDS011;5692;48.956;9.200;2023-07-20T03:05:23;226.18;;;215.38;;
11269;SDS011;5692;48.956;9.200;2023-07-20T03:07:50;235.70;;;224.40;;
11269;SDS011;5692;48.956;9.200;2023-07-20T03:10:16;233.10;;;221.95;;
11269;SDS011;5692;48.956;9.200;2023-07-20T03:12:42;246.85;;;235.05;;
11269;SDS011;5692;48.956;9.200;2023-07-20T03:15:08;234.95;;;223.73;;
11269;SDS011;5692;48.956;9.200;2023-07-20T03:17:34;234.88;;;223.63;;
11269;SDS011;5692;48.956;9.200;2023-07-20T03:20:00;222.25;;;211.63;;
11269;SDS011;5692;48.956;9.200;2023-07-20T03:22:27;226.25;;;215.45;;
11269;SDS011;5692;48.956;9.200;2023-07-20T03:24:54;239.23;;;227.77;;
11269;SDS011;5692;48.956;9.200;2023-07-20T03:27:20;220.50;;;209.93;;
11269;SDS011;5692;48.956;9.200;2023-07-20T03:29:46;228.55;;;217.63;;
11269;SDS011;5692;48.956;9.200;2023-07-20T03:32:12;224.15;;;213.45;;
11269;SDS011;5692;48.956;9.200;2023-07-20T03:34:38;217.93;;;207.50;;
11269;SDS011;5692;48.956;9.200;2023-07-20T03:37:04;212.82;;;202.63;;
11269;SDS011;5692;48.956;9.200;2023-07-20T03:39:30;211.55;;;201.45;;
11269;SDS011;5692;48.956;9.200;2023-07-20T03:41:57;216.23;;;205.90;;
11269;SDS011;5692;48.956;9.200;2023-07-20T03:44:24;201.50;;;191.85;;
11269;SDS011;5692;48.956;9.200;2023-07-20T03:46:52;229.82;;;218.85;;
11269;SDS011;5692;48.956;9.200;2023-07-20T03:49:18;213.77;;;203.55;;
11269;SDS011;5692;48.956;9.200;2023-07-20T03:51:44;212.32;;;202.18;;
11269;SDS011;5692;48.956;9.200;2023-07-20T03:54:10;224.40;;;213.70;;
11269;SDS011;5692;48.956;9.200;2023-07-20T03:56:36;229.13;;;218.15;;
11269;SDS011;5692;48.956;9.200;2023-07-20T03:59:02;224.07;;;213.38;;
11269;SDS011;5692;48.956;9.200;2023-07-20T04:01:28;230.30;;;219.30;;
11269;SDS011;5692;48.956;9.200;2023-07-20T04:03:54;222.02;;;211.40;;
11269;SDS011;5692;48.956;9.200;2023-07-20T04:06:21;236.63;;;225.30;;
11269;SDS011;5692;48.956;9.200;2023-07-20T04:08:47;236.13;;;224.82;;
11269;SDS011;5692;48.956;9.200;2023-07-20T04:11:13;235.03;;;223.80;;
11269;SDS011;5692;48.956;9.200;2023-07-20T04:13:39;224.35;;;213.63;;
11269;SDS011;5692;48.956;9.200;2023-07-20T04:16:05;228.20;;;217.30;;
11269;SDS011;5692;48.956;9.200;2023-07-20T04:18:31;231.02;;;219.98;;
11269;SDS011;5692;48.956;9.200;2023-07-20T04:20:57;221.35;;;210.75;;
11269;SDS011;5692;48.956;9.200;2023-07-20T04:23:23;228.80;;;217.90;;
11269;SDS011;5692;48.956;9.200;2023-07-20T04:25:49;237.60;;;226.23;;
11269;SDS011;5692;48.956;9.200;2023-07-20T04:28:15;236.50;;;225.17;;
11269;SDS011;5692;48.956;9.200;2023-07-20T04:30:42;229.10;;;218.15;;
11269;SDS011;5692;48.956;9.200;2023-07-20T04:33:08;221.32;;;210.75;;
11269;SDS011;5692;48.956;9.200;2023-07-20T04:35:53;222.03;;;211.43;;
11269;SDS011;5692;48.956;9.200;2023-07-20T04:38:19;214.70;;;204.40;;
11269;SDS011;5692;48.956;9.200;2023-07-20T04:40:45;220.48;;;209.93;;
11269;SDS011;5692;48.956;9.200;2023-07-20T04:43:12;216.38;;;206.02;;
11269;SDS011;5692;48.956;9.200;2023-07-20T04:45:38;207.20;;;197.27;;
11269;SDS011;5692;48.956;9.200;2023-07-20T04:48:07;209.15;;;199.15;;
11269;SDS011;5692;48.956;9.200;2023-07-20T04:50:35;213.52;;;203.30;;
11269;SDS011;5692;48.956;9.200;2023-07-20T04:53:01;211.07;;;200.98;;
11269;SDS011;5692;48.956;9.200;2023-07-20T04:55:27;225.48;;;214.68;;
11269;SDS011;5692;48.956;9.200;2023-07-20T04:57:53;231.60;;;220.52;;
11269;SDS011;5692;48.956;9.200;2023-07-20T05:00:20;222.20;;;211.60;;
11269;SDS011;5692;48.956;9.200;2023-07-20T05:02:46;222.23;;;211.60;;
11269;SDS011;5692;48.956;9.200;2023-07-20T05:05:14;226.82;;;215.98;;
11269;SDS011;5692;48.956;9.200;2023-07-20T05:07:40;208.23;;;198.25;;
11269;SDS011;5692;48.956;9.200;2023-07-20T05:10:06;226.57;;;215.75;;
11269;SDS011;5692;48.956;9.200;2023-07-20T05:12:32;225.40;;;214.60;;
11269;SDS011;5692;48.956;9.200;2023-07-20T05:14:58;209.55;;;199.52;;
11269;SDS011;5692;48.956;9.200;2023-07-20T05:17:24;204.15;;;194.40;;
11269;SDS011;5692;48.956;9.200;2023-07-20T05:19:50;214.53;;;204.27;;
11269;SDS011;5692;48.956;9.200;2023-07-20T05:22:16;221.27;;;210.68;;
11269;SDS011;5692;48.956;9.200;2023-07-20T05:24:42;240.43;;;228.93;;
11269;SDS011;5692;48.956;9.200;2023-07-20T05:27:08;241.70;;;230.13;;
11269;SDS011;5692;48.956;9.200;2023-07-20T05:29:34;237.97;;;226.60;;
11269;SDS011;5692;48.956;9.200;2023-07-20T05:32:01;223.57;;;212.88;;
11269;SDS011;5692;48.956;9.200;2023-07-20T05:34:28;234.88;;;223.65;;
11269;SDS011;5692;48.956;9.200;2023-07-20T05:36:54;244.05;;;232.40;;
11269;SDS011;5692;48.956;9.200;2023-07-20T05:39:21;257.65;;;245.32;;
11269;SDS011;5692;48.956;9.200;2023-07-20T05:41:47;245.30;;;233.57;;
11269;SDS011;5692;48.956;9.200;2023-07-20T05:44:13;234.30;;;223.10;;
11269;SDS011;5692;48.956;9.200;2023-07-20T05:46:39;217.23;;;206.82;;
11269;SDS011;5692;48.956;9.200;2023-07-20T05:49:05;214.90;;;204.60;;
11269;SDS011;5692;48.956;9.200;2023-07-20T05:51:31;212.37;;;202.17;;
11269;SDS011;5692;48.956;9.200;2023-07-20T05:53:57;228.93;;;217.97;;
11269;SDS011;5692;48.956;9.200;2023-07-20T05:56:23;206.73;;;196.83;;
11269;SDS011;5692;48.956;9.200;2023-07-20T05:58:50;211.75;;;201.65;;
11269;SDS011;5692;48.956;9.200;2023-07-20T06:01:16;216.27;;;205.93;;
11269;SDS011;5692;48.956;9.200;2023-07-20T06:03:43;213.20;;;203.00;;
11269;SDS011;5692;48.956;9.200;2023-07-20T06:06:09;218.87;;;208.37;;
11269;SDS011;5692;48.956;9.200;2023-07-20T06:08:38;225.70;;;214.90;;
11269;SDS011;5692;48.956;9.200;2023-07-20T06:11:04;220.43;;;209.88;;
11269;SDS011;5692;48.956;9.200;2023-07-20T06:13:30;232.88;;;221.75;;
11269;SDS011;5692;48.956;9.200;2023-07-20T06:15:56;238.63;;;227.20;;
11269;SDS011;5692;48.956;9.200;2023-07-20T06:18:22;233.55;;;222.35;;
11269;SDS011;5692;48.956;9.200;2023-07-20T06:20:51;240.70;;;229.20;;
11269;SDS011;5692;48.956;9.200;2023-07-20T06:23:20;234.45;;;223.25;;
11269;SDS011;5692;48.956;9.200;2023-07-20T06:25:47;224.00;;;213.30;;
11269;SDS011;5692;48.956;9.200;2023-07-20T06:28:13;233.73;;;222.52;;
11269;SDS011;5692;48.956;9.200;2023-07-20T06:30:39;232.00;;;220.90;;
11269;SDS011;5692;48.956;9.200;2023-07-20T06:33:08;231.45;;;220.35;;
11269;SDS011;5692;48.956;9.200;2023-07-20T06:35:34;239.80;;;228.32;;
11269;SDS011;5692;48.956;9.200;2023-07-20T06:38:01;218.88;;;208.40;;
11269;SDS011;5692;48.956;9.200;2023-07-20T06:40:28;251.90;;;239.85;;
11269;SDS011;5692;48.956;9.200;2023-07-20T06:42:57;259.25;;;246.85;;
11269;SDS011;5692;48.956;9.200;2023-07-20T06:45:23;266.80;;;254.05;;
11269;SDS011;5692;48.956;9.200;2023-07-20T06:47:49;252.23;;;240.17;;
11269;SDS011;5692;48.956;9.200;2023-07-20T06:50:15;258.40;;;246.03;;
11269;SDS011;5692;48.956;9.200;2023-07-20T06:52:41;226.82;;;215.98;;
11269;SDS011;5692;48.956;9.200;2023-07-20T06:55:07;247.55;;;235.73;;
11269;SDS011;5692;48.956;9.200;2023-07-20T06:57:33;240.77;;;229.27;;
11269;SDS011;5692;48.956;9.200;2023-07-20T06:59:59;237.02;;;225.70;;
11269;SDS011;5692;48.956;9.200;2023-07-20T07:02:25;244.93;;;233.23;;
11269;SDS011;5692;48.956;9.200;2023-07-20T07:04:51;255.63;;;243.43;;
11269;SDS011;5692;48.956;9.200;2023-07-20T07:07:18;252.98;;;240.88;;
11269;SDS011;5692;48.956;9.200;2023-07-20T07:09:45;240.45;;;228.95;;
11269;SDS011;5692;48.956;9.200;2023-07-20T07:12:11;242.70;;;231.10;;
11269;SDS011;5692;48.956;9.200;2023-07-20T07:14:37;256.55;;;244.25;;
11269;SDS011;5692;48.956;9.200;2023-07-20T07:17:03;266.57;;;253.83;;
11269;SDS011;5692;48.956;9.200;2023-07-20T07:19:29;254.00;;;241.85;;
11269;SDS011;5692;48.956;9.200;2023-07-20T07:21:55;247.82;;;235.98;;
11269;SDS011;5692;48.956;9.200;2023-07-20T07:24:21;246.55;;;234.77;;
11269;SDS011;5692;48.956;9.200;2023-07-20T07:26:47;243.80;;;232.13;;
11269;SDS011;5692;48.956;9.200;2023-07-20T07:29:13;246.70;;;234.90;;
11269;SDS011;5692;48.956;9.200;2023-07-20T07:31:39;254.47;;;242.27;;
11269;SDS011;5692;48.956;9.200;2023-07-20T07:34:05;230.95;;;219.93;;
11269;SDS011;5692;48.956;9.200;2023-07-20T07:36:31;250.13;;;238.17;;
11269;SDS011;5692;48.956;9.200;2023-07-20T07:38:57;252.20;;;240.15;;
11269;SDS011;5692;48.956;9.200;2023-07-20T07:41:23;240.87;;;229.37;;
11269;SDS011;5692;48.956;9.200;2023-07-20T07:43:49;244.97;;;233.27;;
11269;SDS011;5692;48.956;9.200;2023-07-20T07:46:16;255.00;;;242.80;;
11269;SDS011;5692;48.956;9.200;2023-07-20T07:48:42;252.65;;;240.57;;
11269;SDS011;5692;48.956;9.200;2023-07-20T07:51:08;230.00;;;218.97;;
11269;SDS011;5692;48.956;9.200;2023-07-20T07:53:36;249.60;;;237.68;;
11269;SDS011;5692;48.956;9.200;2023-07-20T07:56:02;249.88;;;237.93;;
11269;SDS011;5692;48.956;9.200;2023-07-20T07:58:28;252.65;;;240.57;;
11269;SDS011;5692;48.956;9.200;2023-07-20T08:00:55;247.93;;;236.07;;
11269;SDS011;5692;48.956;9.200;2023-07-20T08:03:21;248.50;;;236.60;;
11269;SDS011;5692;48.956;9.200;2023-07-20T08:05:49;248.83;;;236.93;;
11269;SDS011;5692;48.956;9.200;2023-07-20T08:08:15;251.57;;;239.57;;
11269;SDS011;5692;48.956;9.200;2023-07-20T08:10:41;266.60;;;253.87;;
11269;SDS011;5692;48.956;9.200;2023-07-20T08:13:07;255.13;;;242.93;;
11269;SDS011;5692;48.956;9.200;2023-07-20T08:15:33;258.13;;;245.80;;
11269;SDS011;5692;48.956;9.200;2023-07-20T08:17:59;283.53;;;269.97;;
11269;SDS011;5692;48.956;9.200;2023-07-20T08:20:25;278.90;;;265.57;;
11269;SDS011;5692;48.956;9.200;2023-07-20T08:22:52;254.70;;;242.53;;
11269;SDS011;5692;48.956;9.200;2023-07-20T08:25:21;252.63;;;240.52;;
11269;SDS011;5692;48.956;9.200;2023-07-20T08:27:47;240.73;;;229.23;;
11269;SDS011;5692;48.956;9.200;2023-07-20T08:30:13;241.60;;;230.03;;
11269;SDS011;5692;48.956;9.200;2023-07-20T08:32:39;253.30;;;241.17;;
11269;SDS011;5692;48.956;9.200;2023-07-20T08:35:05;252.17;;;240.10;;
11269;SDS011;5692;48.956;9.200;2023-07-20T08:37:32;255.67;;;243.43;;
11269;SDS011;5692;48.956;9.200;2023-07-20T08:39:58;240.20;;;228.70;;
11269;SDS011;5692;48.956;9.200;2023-07-20T08:42:24;256.97;;;244.67;;
11269;SDS011;5692;48.956;9.200;2023-07-20T08:44:50;266.30;;;253.60;;
11269;SDS011;5692;48.956;9.200;2023-07-20T08:47:18;256.33;;;244.07;;
11269;SDS011;5692;48.956;9.200;2023-07-20T08:49:44;275.47;;;262.30;;
11269;SDS011;5692;48.956;9.200;2023-07-20T08:52:14;270.23;;;257.33;;
11269;SDS011;5692;48.956;9.200;2023-07-20T08:54:40;272.43;;;259.43;;
11269;SDS011;5692;48.956;9.200;2023-07-20T08:57:07;276.80;;;263.57;;
11269;SDS011;5692;48.956;9.200;2023-07-20T08:59:34;278.57;;;265.27;;
11269;SDS011;5692;48.956;9.200;2023-07-20T09:02:02;263.33;;;250.73;;
11269;SDS011;5692;48.956;9.200;2023-07-20T09:04:29;297.97;;;283.73;;
11269;SDS011;5692;48.956;9.200;2023-07-20T09:06:57;280.13;;;266.73;;
11269;SDS011;5692;48.956;9.200;2023-07-20T09:09:23;278.07;;;264.77;;
11269;SDS011;5692;48.956;9.200;2023-07-20T09:11:49;282.77;;;269.23;;
11269;SDS011;5692;48.956;9.200;2023-07-20T09:14:15;270.00;;;257.10;;
11269;SDS011;5692;48.956;9.200;2023-07-20T09:16:48;287.43;;;273.70;;
11269;SDS011;5692;48.956;9.200;2023-07-20T09:19:15;271.80;;;258.80;;
11269;SDS011;5692;48.956;9.200;2023-07-20T09:21:43;295.60;;;281.50;;
11269;SDS011;5692;48.956;9.200;2023-07-20T09:24:10;285.60;;;271.97;;
11269;SDS011;5692;48.956;9.200;2023-07-20T09:26:40;274.70;;;261.60;;
11269;SDS011;5692;48.956;9.200;2023-07-20T09:29:07;274.60;;;261.50;;
11269;SDS011;5692;48.956;9.200;2023-07-20T09:31:34;300.13;;;285.80;;
11269;SDS011;5692;48.956;9.200;2023-07-20T09:34:00;281.30;;;267.90;;
11269;SDS011;5692;48.956;9.200;2023-07-20T09:36:26;289.23;;;275.40;;
11269;SDS011;5692;48.956;9.200;2023-07-20T09:38:53;282.27;;;268.77;;
11269;SDS011;5692;48.956;9.200;2023-07-20T09:41:20;275.67;;;262.47;;
11269;SDS011;5692;48.956;9.200;2023-07-20T09:43:46;278.63;;;265.33;;
11269;SDS011;5692;48.956;9.200;2023-07-20T09:46:12;278.37;;;265.07;;
11269;SDS011;5692;48.956;9.200;2023-07-20T09:48:39;272.30;;;259.30;;
11269;SDS011;5692;48.956;9.200;2023-07-20T09:51:08;266.10;;;253.40;;
11269;SDS011;5692;48.956;9.200;2023-07-20T09:53:37;299.13;;;284.83;;
11269;SDS011;5692;48.956;9.200;2023-07-20T09:56:03;287.07;;;273.37;;
11269;SDS011;5692;48.956;9.200;2023-07-20T09:58:30;297.90;;;283.67;;
11269;SDS011;5692;48.956;9.200;2023-07-20T10:00:57;289.57;;;275.73;;
11269;SDS011;5692;48.956;9.200;2023-07-20T10:03:28;304.03;;;289.50;;
11269;SDS011;5692;48.956;9.200;2023-07-20T10:06:00;281.70;;;268.23;;
11269;SDS011;5692;48.956;9.200;2023-07-20T10:08:28;299.60;;;285.30;;
11269;SDS011;5692;48.956;9.200;2023-07-20T10:10:56;272.37;;;259.33;;
11269;SDS011;5692;48.956;9.200;2023-07-20T10:13:26;292.23;;;278.27;;
11269;SDS011;5692;48.956;9.200;2023-07-20T10:15:58;280.87;;;267.47;;
11269;SDS011;5692;48.956;9.200;2023-07-20T10:18:29;284.70;;;271.10;;
11269;SDS011;5692;48.956;9.200;2023-07-20T10:20:56;288.63;;;274.83;;
11269;SDS011;5692;48.956;9.200;2023-07-20T10:23:22;274.30;;;261.20;;
11269;SDS011;5692;48.956;9.200;2023-07-20T10:25:49;310.83;;;295.97;;
11269;SDS011;5692;48.956;9.200;2023-07-20T10:28:16;298.83;;;284.57;;
11269;SDS011;5692;48.956;9.200;2023-07-20T10:30:42;256.80;;;244.50;;
11269;SDS011;5692;48.956;9.200;2023-07-20T10:33:08;265.77;;;253.07;;
11269;SDS011;5692;48.956;9.200;2023-07-20T10:35:50;276.00;;;262.83;;
11269;SDS011;5692;48.956;9.200;2023-07-20T10:38:17;278.80;;;265.47;;
11269;SDS011;5692;48.956;9.200;2023-07-20T10:40:43;289.60;;;275.80;;
11269;SDS011;5692;48.956;9.200;2023-07-20T10:43:19;272.63;;;259.60;;
11269;SDS011;5692;48.956;9.200;2023-07-20T10:45:49;294.33;;;280.27;;
11269;SDS011;5692;48.956;9.200;2023-07-20T10:50:42;278.97;;;265.63;;
11269;SDS011;5692;48.956;9.200;2023-07-20T10:55:37;285.20;;;271.60;;
11269;SDS011;5692;48.956;9.200;2023-07-20T10:58:21;287.83;;;274.07;;
11269;SDS011;5692;48.956;9.200;2023-07-20T11:00:56;293.77;;;279.73;;
11269;SDS011;5692;48.956;9.200;2023-07-20T11:03:30;268.93;;;256.07;;
11269;SDS011;5692;48.956;9.200;2023-07-20T11:05:57;273.37;;;260.30;;
11269;SDS011;5692;48.956;9.200;2023-07-20T11:08:42;283.47;;;269.90;;
11269;SDS011;5692;48.956;9.200;2023-07-20T11:11:27;274.43;;;261.33;;
11269;SDS011;5692;48.956;9.200;2023-07-20T11:13:54;273.00;;;259.97;;
11269;SDS011;5692;48.956;9.200;2023-07-20T11:19:20;257.40;;;245.10;;
11269;SDS011;5692;48.956;9.200;2023-07-20T11:21:50;282.30;;;268.80;;
11269;SDS011;5692;48.956;9.200;2023-07-20T11:24:16;262.87;;;250.30;;
11269;SDS011;5692;48.956;9.200;2023-07-20T11:26:47;285.53;;;271.90;;
11269;SDS011;5692;48.956;9.200;2023-07-20T11:29:13;309.17;;;294.37;;
11269;SDS011;5692;48.956;9.200;2023-07-20T11:31:40;306.97;;;292.30;;
11269;SDS011;5692;48.956;9.200;2023-07-20T11:34:09;313.10;;;298.13;;
11269;SDS011;5692;48.956;9.200;2023-07-20T11:36:36;322.47;;;307.07;;
11269;SDS011;5692;48.956;9.200;2023-07-20T11:39:05;310.47;;;295.63;;
11269;SDS011;5692;48.956;9.200;2023-07-20T11:41:32;330.57;;;314.77;;
11269;SDS011;5692;48.956;9.200;2023-07-20T11:43:58;311.97;;;297.07;;
11269;SDS011;5692;48.956;9.200;2023-07-20T11:46:24;297.77;;;283.57;;
11269;SDS011;5692;48.956;9.200;2023-07-20T11:48:55;280.20;;;266.80;;
11269;SDS011;5692;48.956;9.200;2023-07-20T11:51:22;262.77;;;250.20;;
11269;SDS011;5692;48.956;9.200;2023-07-20T11:53:48;303.17;;;288.67;;
11269;SDS011;5692;48.956;9.200;2023-07-20T11:56:14;307.90;;;293.20;;
11269;SDS011;5692;48.956;9.200;2023-07-20T11:58:44;303.03;;;288.57;;
11269;SDS011;5692;48.956;9.200;2023-07-20T12:01:11;294.70;;;280.60;;
11269;SDS011;5692;48.956;9.200;2023-07-20T12:03:38;309.77;;;294.97;;
11269;SDS011;5692;48.956;9.200;2023-07-20T12:06:07;327.20;;;311.57;;
11269;SDS011;5692;48.956;9.200;2023-07-20T12:08:33;306.23;;;291.60;;
11269;SDS011;5692;48.956;9.200;2023-07-20T12:11:00;307.30;;;292.63;;
11269;SDS011;5692;48.956;9.200;2023-07-20T12:13:39;305.97;;;291.33;;
11269;SDS011;5692;48.956;9.200;2023-07-20T12:16:14;305.67;;;291.07;;
11269;SDS011;5692;48.956;9.200;2023-07-20T12:18:43;293.33;;;279.33;;
11269;SDS011;5692;48.956;9.200;2023-07-20T12:21:09;295.53;;;281.43;;
11269;SDS011;5692;48.956;9.200;2023-07-20T12:23:37;292.33;;;278.37;;
11269;SDS011;5692;48.956;9.200;2023-07-20T12:26:03;312.63;;;297.70;;
11269;SDS011;5692;48.956;9.200;2023-07-20T12:28:31;314.33;;;299.33;;
11269;SDS011;5692;48.956;9.200;2023-07-20T12:30:57;283.33;;;269.80;;
11269;SDS011;5692;48.956;9.200;2023-07-20T12:33:23;294.17;;;280.10;;
11269;SDS011;5692;48.956;9.200;2023-07-20T12:35:50;269.93;;;257.03;;
11269;SDS011;5692;48.956;9.200;2023-07-20T12:38:18;290.27;;;276.37;;
11269;SDS011;5692;48.956;9.200;2023-07-20T12:40:44;286.67;;;272.97;;
11269;SDS011;5692;48.956;9.200;2023-07-20T12:43:10;284.17;;;270.60;;
11269;SDS011;5692;48.956;9.200;2023-07-20T12:45:39;279.07;;;265.77;;
11269;SDS011;5692;48.956;9.200;2023-07-20T12:48:06;273.13;;;260.07;;
11269;SDS011;5692;48.956;9.200;2023-07-20T12:50:32;286.00;;;272.33;;
11269;SDS011;5692;48.956;9.200;2023-07-20T12:52:58;276.47;;;263.23;;
11269;SDS011;5692;48.956;9.200;2023-07-20T12:55:24;293.00;;;278.97;;
11269;SDS011;5692;48.956;9.200;2023-07-20T12:57:51;239.20;;;227.77;;
11269;SDS011;5692;48.956;9.200;2023-07-20T13:00:17;239.90;;;228.40;;
11269;SDS011;5692;48.956;9.200;2023-07-20T13:02:43;168.43;;;160.37;;
11269;SDS011;5692;48.956;9.200;2023-07-20T13:05:09;214.13;;;203.90;;
11269;SDS011;5692;48.956;9.200;2023-07-20T13:07:38;273.67;;;260.57;;
11269;SDS011;5692;48.956;9.200;2023-07-20T13:10:05;275.70;;;262.50;;
11269;SDS011;5692;48.956;9.200;2023-07-20T13:12:32;254.13;;;241.97;;
11269;SDS011;5692;48.956;9.200;2023-07-20T13:14:58;280.60;;;267.20;;
11269;SDS011;5692;48.956;9.200;2023-07-20T13:17:26;277.50;;;264.23;;
11269;SDS011;5692;48.956;9.200;2023-07-20T13:19:52;287.10;;;273.40;;
11269;SDS011;5692;48.956;9.200;2023-07-20T13:22:18;273.07;;;260.00;;
11269;SDS011;5692;48.956;9.200;2023-07-20T13:24:45;267.30;;;254.53;;
11269;SDS011;5692;48.956;9.200;2023-07-20T13:27:14;275.30;;;262.13;;
11269;SDS011;5692;48.956;9.200;2023-07-20T13:29:40;283.60;;;270.03;;
11269;SDS011;5692;48.956;9.200;2023-07-20T13:32:07;279.07;;;265.73;;
11269;SDS011;5692;48.956;9.200;2023-07-20T13:34:33;276.97;;;263.77;;
11269;SDS011;5692;48.956;9.200;2023-07-20T13:37:00;289.17;;;275.37;;
11269;SDS011;5692;48.956;9.200;2023-07-20T13:39:26;292.07;;;278.10;;
11269;SDS011;5692;48.956;9.200;2023-07-20T13:41:53;278.70;;;265.37;;
11269;SDS011;5692;48.956;9.200;2023-07-20T13:44:19;282.50;;;269.00;;
11269;SDS011;5692;48.956;9.200;2023-07-20T13:46:46;221.93;;;211.33;;
11269;SDS011;5692;48.956;9.200;2023-07-20T13:49:11;246.93;;;235.13;;
11269;SDS011;5692;48.956;9.200;2023-07-20T13:51:38;341.20;;;324.90;;
11269;SDS011;5692;48.956;9.200;2023-07-20T13:54:05;292.13;;;278.17;;
11269;SDS011;5692;48.956;9.200;2023-07-20T13:56:31;322.53;;;307.13;;
11269;SDS011;5692;48.956;9.200;2023-07-20T13:58:57;302.17;;;287.73;;
11269;SDS011;5692;48.956;9.200;2023-07-20T14:01:23;283.83;;;270.23;;
11269;SDS011;5692;48.956;9.200;2023-07-20T14:03:50;287.47;;;273.73;;
11269;SDS011;5692;48.956;9.200;2023-07-20T14:06:16;281.80;;;268.30;;
11269;SDS011;5692;48.956;9.200;2023-07-20T14:08:42;339.50;;;323.30;;
11269;SDS011;5692;48.956;9.200;2023-07-20T14:11:11;296.63;;;282.47;;
11269;SDS011;5692;48.956;9.200;2023-07-20T14:13:37;292.03;;;278.10;;
11269;SDS011;5692;48.956;9.200;2023-07-20T14:16:06;299.87;;;285.53;;
11269;SDS011;5692;48.956;9.200;2023-07-20T14:18:33;287.40;;;273.70;;
11269;SDS011;5692;48.956;9.200;2023-07-20T14:20:59;283.20;;;269.67;;
11269;SDS011;5692;48.956;9.200;2023-07-20T14:23:27;250.17;;;238.20;;